createdAt,value
2019-06-01T00:00:11.975Z,92.60
2019-06-01T00:01:09.002Z,92.71
2019-06-01T00:02:08.999Z,92.60
2019-06-01T00:03:08.992Z,92.80
2019-06-01T00:04:08.975Z,92.60
2019-06-01T00:05:08.973Z,92.60
2019-06-01T00:06:08.951Z,93.21
2019-06-01T00:07:08.940Z,93.21
2019-06-01T00:08:08.931Z,93.41
2019-06-01T00:09:08.951Z,93.11
2019-06-01T00:10:08.928Z,93.31
2019-06-01T00:11:08.925Z,93.41
2019-06-01T00:12:08.886Z,93.31
2019-06-01T00:13:08.871Z,93.71
2019-06-01T00:14:08.861Z,94.16
2019-06-01T00:15:08.867Z,94.06
2019-06-01T00:16:08.846Z,94.32
2019-06-01T00:17:08.827Z,94.32
2019-06-01T00:18:08.816Z,94.21
2019-06-01T00:19:08.806Z,94.32
2019-06-01T00:20:08.838Z,94.26
2019-06-01T00:21:08.791Z,93.71
2019-06-01T00:22:08.778Z,93.91
2019-06-01T00:23:08.766Z,94.01
2019-06-01T00:24:08.764Z,94.12
2019-06-01T00:25:08.753Z,94.46
2019-06-01T00:26:08.746Z,94.32
2019-06-01T00:27:08.730Z,94.16
2019-06-01T00:28:08.712Z,94.26
2019-06-01T00:29:08.696Z,93.96
2019-06-01T00:30:08.684Z,94.26
2019-06-01T00:31:08.689Z,94.16
2019-06-01T00:32:08.669Z,94.00
2019-06-01T00:33:08.651Z,94.10
2019-06-01T00:34:08.645Z,94.00
2019-06-01T00:35:08.642Z,94.10
2019-06-01T00:36:08.634Z,93.80
2019-06-01T00:37:08.654Z,93.80
2019-06-01T00:38:09.536Z,94.00
2019-06-01T00:39:08.590Z,94.40
2019-06-01T00:40:08.584Z,94.51
2019-06-01T00:41:08.563Z,94.51
2019-06-01T00:42:08.552Z,94.51
2019-06-01T00:43:08.557Z,94.31
2019-06-01T00:44:08.573Z,94.51
2019-06-01T00:45:08.522Z,94.51
2019-06-01T00:46:08.513Z,94.31
2019-06-01T00:47:08.504Z,94.60
2019-06-01T00:48:08.513Z,94.71
2019-06-01T00:49:08.484Z,94.81
2019-06-01T00:50:08.471Z,94.75
2019-06-01T00:51:08.455Z,94.65
2019-06-01T00:52:08.447Z,94.60
2019-06-01T00:53:08.449Z,94.81
2019-06-01T00:54:08.427Z,94.75
2019-06-01T00:55:08.418Z,94.71
2019-06-01T00:56:08.405Z,94.65
2019-06-01T00:57:08.402Z,94.81
2019-06-01T00:58:08.389Z,94.85
2019-06-01T00:59:08.373Z,94.45
2019-06-01T01:00:08.362Z,94.55
2019-06-01T01:01:08.356Z,94.55
2019-06-01T01:02:08.343Z,94.51
2019-06-01T01:03:08.345Z,94.55
2019-06-01T01:04:08.322Z,94.60
2019-06-01T01:05:08.309Z,94.75
2019-06-01T01:06:08.325Z,94.75
2019-06-01T01:07:08.291Z,94.85
2019-06-01T01:08:08.286Z,94.81
2019-06-01T01:09:08.275Z,94.75
2019-06-01T01:10:08.262Z,94.75
2019-06-01T01:11:08.241Z,94.51
2019-06-01T01:12:08.227Z,94.10
2019-06-01T01:13:08.223Z,94.05
2019-06-01T01:14:08.206Z,93.40
2019-06-01T01:15:08.254Z,94.10
2019-06-01T01:16:08.224Z,93.65
2019-06-01T01:17:08.180Z,94.00
2019-06-01T01:18:08.163Z,93.90
2019-06-01T01:19:08.154Z,94.25
2019-06-01T01:20:08.151Z,94.05
2019-06-01T01:21:08.136Z,94.05
2019-06-01T01:22:08.131Z,93.95
2019-06-01T01:23:08.115Z,94.25
2019-06-01T01:24:08.102Z,94.15
2019-06-01T01:25:08.101Z,93.95
2019-06-01T01:26:08.101Z,93.85
2019-06-01T01:27:08.084Z,93.85
2019-06-01T01:28:08.051Z,93.85
2019-06-01T01:29:10.199Z,94.25
2019-06-01T01:30:08.039Z,94.45
2019-06-01T01:31:13.890Z,94.35
2019-06-01T01:32:09.019Z,94.25
2019-06-01T01:33:08.001Z,93.65
2019-06-01T01:34:07.993Z,94.35
2019-06-01T01:35:07.988Z,94.05
2019-06-01T01:36:07.988Z,93.44
2019-06-01T01:37:07.962Z,93.44
2019-06-01T01:38:07.948Z,93.65
2019-06-01T01:39:07.937Z,93.34
2019-06-01T01:40:07.957Z,93.54
2019-06-01T01:41:07.914Z,93.34
2019-06-01T01:42:07.899Z,93.65
2019-06-01T01:43:07.898Z,93.54
2019-06-01T01:44:07.884Z,93.44
2019-06-01T01:45:07.867Z,93.44
2019-06-01T01:46:07.880Z,93.54
2019-06-01T01:47:07.847Z,92.94
2019-06-01T01:48:07.839Z,93.49
2019-06-01T01:49:07.832Z,93.29
2019-06-01T01:50:07.820Z,93.49
2019-06-01T01:51:07.805Z,93.49
2019-06-01T01:52:07.804Z,93.38
2019-06-01T01:53:07.783Z,93.59
2019-06-01T01:54:07.768Z,93.69
2019-06-01T01:55:07.756Z,93.79
2019-06-01T01:56:07.788Z,93.59
2019-06-01T01:57:07.741Z,93.59
2019-06-01T01:58:07.730Z,93.38
2019-06-01T01:59:07.718Z,93.29
2019-06-01T02:00:07.702Z,93.69
2019-06-01T02:01:21.373Z,93.49
2019-06-01T02:02:08.691Z,93.59
2019-06-01T02:03:07.670Z,92.58
2019-06-01T02:04:07.659Z,92.98
2019-06-01T02:05:07.653Z,92.88
2019-06-01T02:06:07.641Z,92.88
2019-06-01T02:07:07.668Z,92.78
2019-06-01T02:08:07.621Z,93.18
2019-06-01T02:09:07.608Z,93.08
2019-06-01T02:10:07.592Z,92.88
2019-06-01T02:11:07.586Z,93.18
2019-06-01T02:12:07.575Z,92.68
2019-06-01T02:13:07.568Z,93.08
2019-06-01T02:14:07.547Z,92.88
2019-06-01T02:15:07.540Z,93.08
2019-06-01T02:16:07.564Z,92.98
2019-06-01T02:17:07.530Z,93.08
2019-06-01T02:18:07.508Z,93.08
2019-06-01T02:19:07.497Z,92.98
2019-06-01T02:20:07.497Z,93.49
2019-06-01T02:21:07.493Z,93.18
2019-06-01T02:22:07.473Z,92.38
2019-06-01T02:23:07.474Z,93.18
2019-06-01T02:24:07.436Z,92.38
2019-06-01T02:25:07.445Z,92.78
2019-06-01T02:26:07.418Z,92.38
2019-06-01T02:27:07.414Z,92.78
2019-06-01T02:28:07.397Z,92.88
2019-06-01T02:29:07.403Z,91.97
2019-06-01T02:30:07.377Z,91.91
2019-06-01T02:31:07.394Z,92.32
2019-06-01T02:32:07.354Z,92.22
2019-06-01T02:33:07.346Z,91.91
2019-06-01T02:34:07.377Z,92.62
2019-06-01T02:35:07.324Z,92.38
2019-06-01T02:36:07.305Z,92.42
2019-06-01T02:37:07.326Z,92.22
2019-06-01T02:38:07.291Z,92.32
2019-06-01T02:39:07.285Z,92.32
2019-06-01T02:40:07.293Z,92.32
2019-06-01T02:41:07.264Z,91.91
2019-06-01T02:42:07.265Z,92.12
2019-06-01T02:43:07.354Z,92.12
2019-06-01T02:44:07.223Z,92.02
2019-06-01T02:45:07.222Z,91.51
2019-06-01T02:46:07.658Z,91.46
2019-06-01T02:47:07.189Z,91.91
2019-06-01T02:48:07.198Z,92.36
2019-06-01T02:49:07.163Z,92.86
2019-06-01T02:50:07.167Z,92.36
2019-06-01T02:51:07.159Z,92.77
2019-06-01T02:52:07.129Z,93.48
2019-06-01T02:53:07.153Z,92.36
2019-06-01T02:54:07.112Z,93.17
2019-06-01T02:55:07.107Z,93.17
2019-06-01T02:56:07.102Z,92.77
2019-06-01T02:57:07.090Z,92.86
2019-06-01T02:58:07.073Z,92.91
2019-06-01T02:59:07.068Z,92.61
2019-06-01T03:00:07.080Z,93.37
2019-06-01T03:01:07.126Z,93.57
2019-06-01T03:02:11.881Z,92.61
2019-06-01T03:03:08.009Z,92.61
2019-06-01T03:04:08.105Z,93.62
2019-06-01T03:05:07.692Z,93.52
2019-06-01T03:06:07.666Z,93.41
2019-06-01T03:07:07.477Z,93.52
2019-06-01T03:08:07.622Z,93.62
2019-06-01T03:09:08.845Z,93.62
2019-06-01T03:10:07.075Z,93.12
2019-06-01T03:11:08.008Z,93.37
2019-06-01T03:12:08.195Z,92.57
2019-06-01T03:13:06.897Z,92.86
2019-06-01T03:14:06.898Z,92.81
2019-06-01T03:15:06.892Z,92.91
2019-06-01T03:16:06.870Z,92.86
2019-06-01T03:17:07.904Z,93.07
2019-06-01T03:18:07.744Z,93.21
2019-06-01T03:19:08.071Z,92.50
2019-06-01T03:20:07.849Z,92.50
2019-06-01T03:21:07.883Z,93.32
2019-06-01T03:22:07.320Z,92.81
2019-06-01T03:23:07.901Z,92.71
2019-06-01T03:24:08.059Z,93.01
2019-06-01T03:25:07.995Z,93.01
2019-06-01T03:26:08.625Z,93.01
2019-06-01T03:27:06.745Z,93.32
2019-06-01T03:28:06.843Z,92.81
2019-06-01T03:29:07.297Z,92.81
2019-06-01T03:30:09.115Z,92.50
2019-06-01T03:31:08.833Z,92.91
2019-06-01T03:32:24.127Z,92.41
2019-06-01T03:33:10.082Z,93.21
2019-06-01T03:34:08.724Z,93.32
2019-06-01T03:35:06.818Z,92.91
2019-06-01T03:36:06.904Z,93.21
2019-06-01T03:37:07.096Z,93.01
2019-06-01T03:38:06.989Z,92.81
2019-06-01T03:39:06.637Z,92.81
2019-06-01T03:40:14.636Z,93.21
2019-06-01T03:41:08.244Z,92.81
2019-06-01T03:42:07.964Z,93.12
2019-06-01T03:43:07.232Z,92.50
2019-06-01T03:44:06.623Z,92.81
2019-06-01T03:45:07.636Z,92.91
2019-06-01T03:46:06.700Z,93.16
2019-06-01T03:47:07.595Z,92.21
2019-06-01T03:48:06.811Z,92.71
2019-06-01T03:49:07.617Z,92.61
2019-06-01T03:50:06.900Z,92.50
2019-06-01T03:51:08.183Z,92.41
2019-06-01T03:52:06.900Z,92.91
2019-06-01T03:53:06.451Z,92.41
2019-06-01T03:54:08.138Z,92.00
2019-06-01T03:55:06.429Z,91.60
2019-06-01T03:56:06.949Z,92.10
2019-06-01T03:57:07.259Z,91.70
2019-06-01T03:58:07.278Z,92.10
2019-06-01T03:59:07.289Z,92.10
2019-06-01T04:00:07.170Z,91.60
2019-06-01T04:01:07.152Z,90.89
2019-06-01T04:02:07.101Z,90.89
2019-06-01T04:03:07.142Z,90.99
2019-06-01T04:04:07.126Z,91.15
2019-06-01T04:05:07.415Z,91.35
2019-06-01T04:06:07.378Z,91.25
2019-06-01T04:07:06.478Z,91.35
2019-06-01T04:08:07.449Z,91.05
2019-06-01T04:09:07.619Z,90.75
2019-06-01T04:10:07.824Z,90.65
2019-06-01T04:11:07.694Z,90.95
2019-06-01T04:12:07.561Z,90.95
2019-06-01T04:13:07.281Z,90.34
2019-06-01T04:14:06.240Z,90.70
2019-06-01T04:15:10.085Z,90.30
2019-06-01T04:16:07.911Z,90.10
2019-06-01T04:17:06.252Z,89.90
2019-06-01T04:18:06.223Z,89.19
2019-06-01T04:19:06.277Z,90.00
2019-06-01T04:20:06.154Z,89.29
2019-06-01T04:21:06.151Z,89.79
2019-06-01T04:22:06.131Z,89.70
2019-06-01T04:23:06.227Z,89.15
2019-06-01T04:24:06.126Z,89.15
2019-06-01T04:25:06.099Z,88.99
2019-06-01T04:26:06.089Z,89.19
2019-06-01T04:27:06.192Z,88.75
2019-06-01T04:28:06.307Z,89.25
2019-06-01T04:29:06.410Z,89.25
2019-06-01T04:30:06.757Z,88.34
2019-06-01T04:31:06.519Z,88.45
2019-06-01T04:32:06.520Z,88.14
2019-06-01T04:33:07.025Z,87.84
2019-06-01T04:34:06.805Z,88.00
2019-06-01T04:35:07.352Z,87.29
2019-06-01T04:36:06.892Z,87.40
2019-06-01T04:37:07.064Z,87.25
2019-06-01T04:38:07.112Z,87.05
2019-06-01T04:39:07.219Z,87.15
2019-06-01T04:40:05.948Z,86.55
2019-06-01T04:41:05.933Z,86.44
2019-06-01T04:42:05.913Z,85.80
2019-06-01T04:43:05.927Z,85.90
2019-06-01T04:44:05.996Z,85.80
2019-06-01T04:45:06.821Z,85.50
2019-06-01T04:46:06.167Z,85.25
2019-06-01T04:47:06.656Z,85.25
2019-06-01T04:48:06.378Z,84.35
2019-06-01T04:49:06.536Z,84.05
2019-06-01T04:50:06.683Z,84.75
2019-06-01T04:51:06.638Z,84.65
2019-06-01T04:52:06.767Z,83.61
2019-06-01T04:53:06.854Z,83.61
2019-06-01T04:54:06.870Z,83.91
2019-06-01T04:55:07.297Z,83.47
2019-06-01T04:56:07.031Z,81.85
2019-06-01T04:57:06.771Z,82.46
2019-06-01T04:58:06.788Z,82.26
2019-06-01T04:59:06.746Z,82.06
2019-06-01T05:00:19.838Z,82.32
2019-06-01T05:01:06.968Z,82.12
2019-06-01T05:02:07.235Z,81.68
2019-06-01T05:03:07.704Z,81.18
2019-06-01T05:04:06.987Z,81.07
2019-06-01T05:05:07.079Z,80.98
2019-06-01T05:06:07.075Z,80.88
2019-06-01T05:07:05.643Z,80.94
2019-06-01T05:08:05.650Z,80.04
2019-06-01T05:09:05.626Z,79.93
2019-06-01T05:10:05.606Z,79.93
2019-06-01T05:11:07.050Z,79.73
2019-06-01T05:12:05.589Z,79.63
2019-06-01T05:13:05.572Z,78.33
2019-06-01T05:14:05.565Z,79.13
2019-06-01T05:15:05.593Z,79.63
2019-06-01T05:16:05.930Z,80.13
2019-06-01T05:17:05.968Z,80.37
2019-06-01T05:18:05.944Z,80.94
2019-06-01T05:19:06.050Z,80.88
2019-06-01T05:20:06.255Z,80.07
2019-06-01T05:21:06.424Z,80.68
2019-06-01T05:22:06.433Z,81.07
2019-06-01T05:23:06.572Z,80.77
2019-06-01T05:24:06.613Z,81.18
2019-06-01T05:25:06.713Z,80.88
2019-06-01T05:26:06.734Z,80.77
2019-06-01T05:27:05.447Z,80.63
2019-06-01T05:28:05.412Z,80.77
2019-06-01T05:29:05.405Z,81.18
2019-06-01T05:30:05.393Z,81.27
2019-06-01T05:31:05.378Z,81.38
2019-06-01T05:32:05.374Z,81.38
2019-06-01T05:33:18.553Z,81.38
2019-06-01T05:34:07.644Z,81.58
2019-06-01T05:35:05.331Z,81.68
2019-06-01T05:36:05.325Z,81.58
2019-06-01T05:37:05.311Z,81.82
2019-06-01T05:38:05.299Z,81.52
2019-06-01T05:39:05.311Z,81.38
2019-06-01T05:40:05.282Z,81.12
2019-06-01T05:41:05.271Z,79.97
2019-06-01T05:42:05.270Z,81.52
2019-06-01T05:43:05.252Z,81.32
2019-06-01T05:44:05.234Z,81.52
2019-06-01T05:45:05.243Z,81.62
2019-06-01T05:46:05.213Z,81.82
2019-06-01T05:47:05.199Z,82.02
2019-06-01T05:48:05.196Z,81.82
2019-06-01T05:49:05.187Z,82.22
2019-06-01T05:50:05.208Z,82.02
2019-06-01T05:51:05.162Z,82.02
2019-06-01T05:52:05.146Z,82.12
2019-06-01T05:53:05.140Z,82.02
2019-06-01T05:54:05.127Z,82.02
2019-06-01T05:55:05.111Z,81.92
2019-06-01T05:56:05.115Z,81.92
2019-06-01T05:57:05.091Z,81.21
2019-06-01T05:58:05.086Z,81.82
2019-06-01T05:59:05.069Z,81.38
2019-06-01T06:00:05.065Z,80.98
2019-06-01T06:01:05.056Z,80.77
2019-06-01T06:02:05.035Z,81.18
2019-06-01T06:03:05.046Z,81.04
2019-06-01T06:04:05.025Z,80.83
2019-06-01T06:05:05.007Z,80.24
2019-06-01T06:06:05.004Z,80.13
2019-06-01T06:07:04.992Z,79.93
2019-06-01T06:08:04.974Z,80.83
2019-06-01T06:09:04.969Z,81.04
2019-06-01T06:10:04.963Z,80.63
2019-06-01T06:11:04.942Z,80.94
2019-06-01T06:12:04.928Z,80.94
2019-06-01T06:13:04.919Z,80.70
2019-06-01T06:14:04.919Z,80.74
2019-06-01T06:15:04.901Z,80.54
2019-06-01T06:16:04.884Z,80.74
2019-06-01T06:17:04.886Z,80.07
2019-06-01T06:18:04.866Z,81.07
2019-06-01T06:19:04.855Z,80.77
2019-06-01T06:20:04.843Z,81.38
2019-06-01T06:21:04.832Z,81.68
2019-06-01T06:22:04.834Z,81.58
2019-06-01T06:23:04.813Z,81.68
2019-06-01T06:24:04.808Z,81.68
2019-06-01T06:25:04.823Z,80.74
2019-06-01T06:26:04.779Z,81.44
2019-06-01T06:27:04.780Z,80.13
2019-06-01T06:28:04.767Z,80.33
2019-06-01T06:29:04.750Z,80.94
2019-06-01T06:30:04.731Z,80.74
2019-06-01T06:31:04.724Z,80.63
2019-06-01T06:32:04.762Z,79.63
2019-06-01T06:33:04.721Z,79.83
2019-06-01T06:34:04.699Z,79.49
2019-06-01T06:35:04.678Z,78.99
2019-06-01T06:36:04.673Z,78.55
2019-06-01T06:37:04.655Z,77.61
2019-06-01T06:38:04.645Z,76.91
2019-06-01T06:39:04.862Z,76.67
2019-06-01T06:40:04.623Z,75.93
2019-06-01T06:41:04.612Z,76.04
2019-06-01T06:42:04.609Z,74.50
2019-06-01T06:43:18.570Z,74.00
2019-06-01T06:44:05.608Z,73.26
2019-06-01T06:45:04.575Z,73.16
2019-06-01T06:46:04.564Z,73.36
2019-06-01T06:47:04.557Z,72.92
2019-06-01T06:48:04.537Z,72.53
2019-06-01T06:49:04.536Z,71.62
2019-06-01T06:50:04.523Z,71.56
2019-06-01T06:51:04.501Z,71.83
2019-06-01T06:52:04.496Z,71.42
2019-06-01T06:53:04.489Z,71.92
2019-06-01T06:54:04.477Z,72.13
2019-06-01T06:55:04.482Z,70.62
2019-06-01T06:56:04.461Z,70.73
2019-06-01T06:57:04.435Z,71.23
2019-06-01T06:58:04.425Z,72.36
2019-06-01T06:59:04.428Z,71.62
2019-06-01T07:00:04.416Z,71.06
2019-06-01T07:01:04.509Z,71.76
2019-06-01T07:02:04.411Z,70.83
2019-06-01T07:03:04.381Z,71.03
2019-06-01T07:04:12.740Z,71.83
2019-06-01T07:05:05.350Z,71.83
2019-06-01T07:06:04.351Z,71.92
2019-06-01T07:07:04.341Z,71.73
2019-06-01T07:08:04.317Z,72.03
2019-06-01T07:09:04.306Z,71.49
2019-06-01T07:10:04.307Z,70.36
2019-06-01T07:11:04.296Z,70.23
2019-06-01T07:12:04.296Z,68.33
2019-06-01T07:13:04.289Z,68.10
2019-06-01T07:14:04.271Z,68.23
2019-06-01T07:15:04.268Z,67.90
2019-06-01T07:16:04.234Z,66.30
2019-06-01T07:17:04.269Z,65.90
2019-06-01T07:18:04.217Z,65.47
2019-06-01T07:19:04.218Z,65.34
2019-06-01T07:20:04.200Z,65.50
2019-06-01T07:21:04.191Z,66.23
2019-06-01T07:22:04.182Z,66.03
2019-06-01T07:23:04.151Z,65.30
2019-06-01T07:24:04.153Z,67.00
2019-06-01T07:25:04.135Z,66.09
2019-06-01T07:26:04.125Z,64.74
2019-06-01T07:27:04.122Z,64.11
2019-06-01T07:28:04.130Z,64.15
2019-06-01T07:29:04.091Z,64.78
2019-06-01T07:30:04.093Z,64.58
2019-06-01T07:31:04.070Z,65.44
2019-06-01T07:32:04.063Z,65.44
2019-06-01T07:33:04.054Z,64.41
2019-06-01T07:34:04.032Z,64.41
2019-06-01T07:35:04.029Z,64.37
2019-06-01T07:36:04.016Z,63.18
2019-06-01T07:37:04.031Z,63.05
2019-06-01T07:38:04.007Z,63.85
2019-06-01T07:39:03.983Z,63.42
2019-06-01T07:40:03.966Z,62.19
2019-06-01T07:41:03.965Z,61.47
2019-06-01T07:42:03.957Z,60.27
2019-06-01T07:43:03.970Z,59.95
2019-06-01T07:44:03.923Z,58.33
2019-06-01T07:45:03.919Z,57.86
2019-06-01T07:46:03.901Z,58.26
2019-06-01T07:47:03.891Z,54.46
2019-06-01T07:48:03.900Z,56.51
2019-06-01T07:49:03.891Z,56.64
2019-06-01T07:50:03.864Z,56.44
2019-06-01T07:51:03.872Z,55.35
2019-06-01T07:52:12.648Z,55.72
2019-06-01T07:53:04.834Z,56.34
2019-06-01T07:54:03.820Z,56.32
2019-06-01T07:55:03.814Z,56.14
2019-06-01T07:56:03.799Z,56.12
2019-06-01T07:57:03.812Z,56.41
2019-06-01T07:58:03.771Z,56.51
2019-06-01T07:59:03.764Z,56.38
2019-06-01T08:00:03.753Z,55.32
2019-06-01T08:01:03.745Z,56.34
2019-06-01T08:02:03.748Z,56.40
2019-06-01T08:03:03.739Z,57.59
2019-06-01T08:04:03.714Z,56.96
2019-06-01T08:05:03.706Z,56.30
2019-06-01T08:06:03.699Z,57.56
2019-06-01T08:07:03.700Z,56.71
2019-06-01T08:08:03.671Z,54.90
2019-06-01T08:09:03.666Z,53.98
2019-06-01T08:10:03.665Z,53.28
2019-06-01T08:11:03.637Z,54.10
2019-06-01T08:12:03.702Z,54.50
2019-06-01T08:13:03.617Z,53.70
2019-06-01T08:14:03.619Z,53.11
2019-06-01T08:15:03.615Z,53.38
2019-06-01T08:16:03.643Z,53.58
2019-06-01T08:17:03.573Z,53.26
2019-06-01T08:18:03.574Z,52.86
2019-06-01T08:19:03.559Z,52.66
2019-06-01T08:20:03.554Z,52.04
2019-06-01T08:21:03.536Z,52.34
2019-06-01T08:22:03.532Z,51.92
2019-06-01T08:23:03.507Z,51.84
2019-06-01T08:24:03.520Z,51.20
2019-06-01T08:25:03.498Z,51.30
2019-06-01T08:26:03.477Z,51.32
2019-06-01T08:27:03.471Z,51.32
2019-06-01T08:28:03.484Z,51.62
2019-06-01T08:29:03.443Z,51.42
2019-06-01T08:30:03.445Z,51.40
2019-06-01T08:31:03.431Z,51.50
2019-06-01T08:32:03.419Z,50.81
2019-06-01T08:33:03.452Z,50.29
2019-06-01T08:34:03.410Z,49.89
2019-06-01T08:35:08.631Z,48.97
2019-06-01T08:36:04.376Z,49.22
2019-06-01T08:37:03.441Z,49.44
2019-06-01T08:38:03.354Z,49.91
2019-06-01T08:39:03.356Z,47.99
2019-06-01T08:40:03.482Z,47.47
2019-06-01T08:41:03.336Z,47.64
2019-06-01T08:42:03.322Z,47.37
2019-06-01T08:43:03.309Z,47.78
2019-06-01T08:44:03.313Z,48.60
2019-06-01T08:45:03.447Z,48.63
2019-06-01T08:46:03.278Z,48.72
2019-06-01T08:47:03.261Z,49.52
2019-06-01T08:48:03.283Z,49.54
2019-06-01T08:49:03.238Z,49.74
2019-06-01T08:50:03.242Z,50.53
2019-06-01T08:51:03.214Z,51.45
2019-06-01T08:52:03.218Z,51.89
2019-06-01T08:53:03.193Z,51.89
2019-06-01T08:54:03.185Z,51.57
2019-06-01T08:55:03.178Z,51.97
2019-06-01T08:56:03.161Z,50.36
2019-06-01T08:57:03.196Z,49.74
2019-06-01T08:58:03.152Z,49.71
2019-06-01T08:59:03.133Z,49.76
2019-06-01T09:00:03.124Z,50.06
2019-06-01T09:01:03.114Z,51.47
2019-06-01T09:02:03.099Z,51.37
2019-06-01T09:03:03.102Z,51.47
2019-06-01T09:04:03.082Z,51.79
2019-06-01T09:05:03.088Z,53.01
2019-06-01T09:06:03.065Z,53.01
2019-06-01T09:07:03.101Z,51.50
2019-06-01T09:08:03.044Z,50.11
2019-06-01T09:09:03.026Z,49.61
2019-06-01T09:10:03.026Z,49.46
2019-06-01T09:11:03.018Z,48.57
2019-06-01T09:12:03.038Z,49.44
2019-06-01T09:13:03.008Z,48.55
2019-06-01T09:14:02.976Z,48.35
2019-06-01T09:15:02.968Z,48.94
2019-06-01T09:16:02.960Z,48.43
2019-06-01T09:17:02.979Z,48.63
2019-06-01T09:18:02.946Z,48.63
2019-06-01T09:19:02.922Z,49.52
2019-06-01T09:20:02.925Z,50.21
2019-06-01T09:21:02.923Z,47.86
2019-06-01T09:22:02.895Z,49.37
2019-06-01T09:23:02.902Z,49.09
2019-06-01T09:24:02.873Z,50.28
2019-06-01T09:25:02.881Z,48.30
2019-06-01T09:26:02.908Z,48.67
2019-06-01T09:27:02.843Z,47.68
2019-06-01T09:28:02.877Z,48.38
2019-06-01T09:29:02.844Z,48.15
2019-06-01T09:30:02.807Z,47.96
2019-06-01T09:31:02.812Z,47.61
2019-06-01T09:32:02.793Z,47.49
2019-06-01T09:33:02.789Z,46.60
2019-06-01T09:34:02.776Z,45.83
2019-06-01T09:35:02.794Z,46.72
2019-06-01T09:36:02.748Z,47.31
2019-06-01T09:37:02.739Z,47.39
2019-06-01T09:38:02.728Z,46.72
2019-06-01T09:39:02.730Z,46.70
2019-06-01T09:40:02.709Z,46.01
2019-06-01T09:41:02.700Z,45.98
2019-06-01T09:42:02.698Z,46.95
2019-06-01T09:43:02.672Z,46.11
2019-06-01T09:44:02.686Z,46.70
2019-06-01T09:45:02.652Z,46.50
2019-06-01T09:46:03.577Z,47.59
2019-06-01T09:47:02.636Z,47.39
2019-06-01T09:48:02.630Z,47.31
2019-06-01T09:49:02.695Z,47.61
2019-06-01T09:50:02.648Z,47.61
2019-06-01T09:51:02.590Z,47.41
2019-06-01T09:52:02.951Z,47.31
2019-06-01T09:53:02.564Z,47.61
2019-06-01T09:54:02.554Z,47.71
2019-06-01T09:55:02.546Z,46.94
2019-06-01T09:56:02.550Z,48.63
2019-06-01T09:57:02.529Z,48.23
2019-06-01T09:58:02.512Z,48.21
2019-06-01T09:59:02.499Z,47.49
2019-06-01T10:00:02.493Z,47.37
2019-06-01T10:01:02.497Z,47.25
2019-06-01T10:02:02.488Z,46.18
2019-06-01T10:03:02.461Z,46.36
2019-06-01T10:04:02.455Z,45.47
2019-06-01T10:05:02.443Z,46.26
2019-06-01T10:06:02.706Z,45.94
2019-06-01T10:07:02.415Z,45.92
2019-06-01T10:08:02.434Z,44.81
2019-06-01T10:09:02.398Z,44.32
2019-06-01T10:10:02.390Z,44.42
2019-06-01T10:11:02.384Z,44.91
2019-06-01T10:12:02.365Z,43.52
2019-06-01T10:13:02.352Z,44.00
2019-06-01T10:14:02.342Z,43.51
2019-06-01T10:15:02.422Z,43.09
2019-06-01T10:16:02.360Z,42.79
2019-06-01T10:17:02.323Z,42.40
2019-06-01T10:18:02.298Z,41.77
2019-06-01T10:19:02.288Z,42.26
2019-06-01T10:20:02.282Z,41.96
2019-06-01T10:21:02.277Z,42.93
2019-06-01T10:22:02.273Z,43.35
2019-06-01T10:23:02.292Z,42.82
2019-06-01T10:24:02.270Z,42.97
2019-06-01T10:25:02.260Z,42.63
2019-06-01T10:26:02.262Z,42.32
2019-06-01T10:27:02.204Z,41.24
2019-06-01T10:28:02.203Z,41.09
2019-06-01T10:29:02.881Z,39.80
2019-06-01T10:30:02.185Z,39.58
2019-06-01T10:31:02.187Z,38.80
2019-06-01T10:32:02.149Z,39.01
2019-06-01T10:33:02.146Z,39.70
2019-06-01T10:34:02.438Z,39.09
2019-06-01T10:35:03.099Z,38.68
2019-06-01T10:36:19.092Z,37.86
2019-06-01T10:37:03.102Z,38.07
2019-06-01T10:38:02.091Z,37.76
2019-06-01T10:39:02.098Z,37.15
2019-06-01T10:40:02.071Z,36.16
2019-06-01T10:41:02.109Z,36.24
2019-06-01T10:42:02.845Z,36.96
2019-06-01T10:43:02.046Z,36.98
2019-06-01T10:44:02.030Z,37.19
2019-06-01T10:45:02.102Z,37.35
2019-06-01T10:46:02.013Z,36.76
2019-06-01T10:47:02.011Z,36.58
2019-06-01T10:48:01.987Z,37.07
2019-06-01T10:49:01.988Z,37.76
2019-06-01T10:50:02.956Z,36.99
2019-06-01T10:51:01.962Z,36.98
2019-06-01T10:52:01.969Z,36.80
2019-06-01T10:53:01.952Z,37.70
2019-06-01T10:54:01.928Z,37.19
2019-06-01T10:55:01.914Z,37.48
2019-06-01T10:56:01.919Z,35.80
2019-06-01T10:57:01.899Z,35.99
2019-06-01T10:58:01.887Z,36.11
2019-06-01T10:59:01.895Z,37.44
2019-06-01T11:00:01.883Z,38.64
2019-06-01T11:01:01.883Z,37.95
2019-06-01T11:02:01.855Z,39.13
2019-06-01T11:03:01.967Z,39.05
2019-06-01T11:04:01.837Z,37.74
2019-06-01T11:05:01.826Z,37.01
2019-06-01T11:06:01.818Z,37.29
2019-06-01T11:07:01.802Z,37.30
2019-06-01T11:08:01.804Z,37.62
2019-06-01T11:09:01.791Z,37.44
2019-06-01T11:10:01.774Z,38.05
2019-06-01T11:11:08.405Z,37.13
2019-06-01T11:12:01.756Z,37.82
2019-06-01T11:13:01.761Z,37.50
2019-06-01T11:14:01.861Z,36.70
2019-06-01T11:15:01.730Z,36.51
2019-06-01T11:16:01.722Z,36.80
2019-06-01T11:17:01.728Z,36.62
2019-06-01T11:18:01.705Z,36.60
2019-06-01T11:19:01.709Z,37.52
2019-06-01T11:20:01.729Z,37.42
2019-06-01T11:21:01.674Z,38.03
2019-06-01T11:22:01.681Z,38.23
2019-06-01T11:23:01.659Z,37.42
2019-06-01T11:24:01.686Z,37.30
2019-06-01T11:25:01.685Z,36.82
2019-06-01T11:26:01.653Z,37.21
2019-06-01T11:27:01.618Z,37.74
2019-06-01T11:28:01.697Z,37.55
2019-06-01T11:29:01.603Z,37.48
2019-06-01T11:30:01.597Z,39.09
2019-06-01T11:31:01.611Z,39.87
2019-06-01T11:32:01.575Z,39.56
2019-06-01T11:33:01.574Z,38.46
2019-06-01T11:34:01.555Z,38.76
2019-06-01T11:35:01.549Z,39.07
2019-06-01T11:36:01.560Z,38.48
2019-06-01T11:37:05.258Z,38.58
2019-06-01T11:38:01.519Z,39.18
2019-06-01T11:39:01.587Z,38.09
2019-06-01T11:40:01.523Z,38.09
2019-06-01T11:41:01.531Z,38.18
2019-06-01T11:42:01.480Z,38.36
2019-06-01T11:43:01.489Z,38.17
2019-06-01T11:44:01.467Z,37.67
2019-06-01T11:45:01.489Z,37.34
2019-06-01T11:46:01.465Z,37.15
2019-06-01T11:47:01.440Z,36.83
2019-06-01T11:48:01.417Z,37.34
2019-06-01T11:49:01.420Z,37.05
2019-06-01T11:50:01.423Z,37.24
2019-06-01T11:51:01.394Z,37.46
2019-06-01T11:52:01.444Z,37.36
2019-06-01T11:53:01.386Z,36.18
2019-06-01T11:54:01.358Z,37.79
2019-06-01T11:55:01.400Z,37.48
2019-06-01T11:56:01.920Z,37.16
2019-06-01T11:57:01.332Z,37.54
2019-06-01T11:58:01.363Z,36.65
2019-06-01T11:59:01.314Z,37.26
2019-06-01T12:00:01.299Z,37.16
2019-06-01T12:01:01.356Z,35.99
2019-06-01T12:02:01.443Z,37.08
2019-06-01T12:03:01.268Z,36.67
2019-06-01T12:04:01.272Z,35.99
2019-06-01T12:05:01.254Z,35.99
2019-06-01T12:06:01.269Z,35.97
2019-06-01T12:07:16.281Z,35.10
2019-06-01T12:08:02.229Z,36.16
2019-06-01T12:09:01.221Z,35.87
2019-06-01T12:10:01.203Z,36.65
2019-06-01T12:11:01.191Z,35.87
2019-06-01T12:12:01.229Z,36.07
2019-06-01T12:13:01.176Z,36.63
2019-06-01T12:14:01.166Z,35.95
2019-06-01T12:15:01.208Z,34.87
2019-06-01T12:16:01.146Z,35.66
2019-06-01T12:17:01.137Z,36.24
2019-06-01T12:18:01.143Z,36.15
2019-06-01T12:19:01.109Z,35.14
2019-06-01T12:20:01.095Z,35.24
2019-06-01T12:21:01.088Z,36.15
2019-06-01T12:22:01.110Z,35.55
2019-06-01T12:23:01.078Z,35.75
2019-06-01T12:24:01.071Z,36.67
2019-06-01T12:25:01.047Z,37.07
2019-06-01T12:26:01.038Z,36.99
2019-06-01T12:27:01.028Z,36.49
2019-06-01T12:28:01.022Z,36.79
2019-06-01T12:29:01.039Z,37.38
2019-06-01T12:30:01.003Z,37.55
2019-06-01T12:31:01.007Z,36.46
2019-06-01T12:32:00.981Z,35.95
2019-06-01T12:33:00.972Z,36.36
2019-06-01T12:34:00.965Z,36.07
2019-06-01T12:35:03.244Z,35.88
2019-06-01T12:36:00.947Z,36.47
2019-06-01T12:37:00.929Z,35.38
2019-06-01T12:38:06.379Z,35.57
2019-06-01T12:39:01.908Z,34.59
2019-06-01T12:40:00.894Z,34.10
2019-06-01T12:41:00.899Z,34.28
2019-06-01T12:42:00.882Z,33.98
2019-06-01T12:43:00.877Z,34.16
2019-06-01T12:44:00.855Z,34.56
2019-06-01T12:45:00.883Z,33.65
2019-06-01T12:46:07.308Z,33.56
2019-06-01T12:47:01.840Z,32.59
2019-06-01T12:48:00.838Z,32.89
2019-06-01T12:49:00.817Z,32.50
2019-06-01T12:50:00.799Z,33.26
2019-06-01T12:51:00.797Z,33.17
2019-06-01T12:52:00.781Z,33.64